sensor_id;sensor_type;location;lat;lon;timestamp;P1;durP1;ratioP1;P2;durP2;ratioP2
17361;SDS011;8798;51.938;4.348;2022-10-15T00:02:26;17.93;;;9.93;;
17361;SDS011;8798;51.938;4.348;2022-10-15T00:04:55;18.27;;;9.17;;
17361;SDS011;8798;51.938;4.348;2022-10-15T00:07:28;15.50;;;8.90;;
17361;SDS011;8798;51.938;4.348;2022-10-15T00:09:59;15.80;;;8.90;;
17361;SDS011;8798;51.938;4.348;2022-10-15T00:12:29;16.53;;;8.07;;
17361;SDS011;8798;51.938;4.348;2022-10-15T00:14:57;15.67;;;8.80;;
17361;SDS011;8798;51.938;4.348;2022-10-15T00:17:25;14.90;;;8.10;;
17361;SDS011;8798;51.938;4.348;2022-10-15T00:19:53;14.63;;;8.83;;
17361;SDS011;8798;51.938;4.348;2022-10-15T00:22:27;17.50;;;8.37;;
17361;SDS011;8798;51.938;4.348;2022-10-15T00:24:57;16.03;;;9.47;;
17361;SDS011;8798;51.938;4.348;2022-10-15T00:27:27;14.97;;;8.50;;
17361;SDS011;8798;51.938;4.348;2022-10-15T00:29:55;15.63;;;8.23;;
17361;SDS011;8798;51.938;4.348;2022-10-15T00:32:28;15.17;;;8.13;;
17361;SDS011;8798;51.938;4.348;2022-10-15T00:34:58;16.57;;;9.00;;
17361;SDS011;8798;51.938;4.348;2022-10-15T00:37:27;15.57;;;9.17;;
17361;SDS011;8798;51.938;4.348;2022-10-15T00:39:56;18.13;;;9.13;;
17361;SDS011;8798;51.938;4.348;2022-10-15T00:42:37;15.83;;;9.50;;
17361;SDS011;8798;51.938;4.348;2022-10-15T00:45:07;19.03;;;9.97;;
17361;SDS011;8798;51.938;4.348;2022-10-15T00:47:47;19.67;;;10.03;;
17361;SDS011;8798;51.938;4.348;2022-10-15T00:50:20;16.13;;;9.40;;
17361;SDS011;8798;51.938;4.348;2022-10-15T00:52:59;18.10;;;9.50;;
17361;SDS011;8798;51.938;4.348;2022-10-15T00:55:37;14.90;;;9.20;;
17361;SDS011;8798;51.938;4.348;2022-10-15T00:58:08;14.80;;;9.27;;
17361;SDS011;8798;51.938;4.348;2022-10-15T01:00:48;17.73;;;10.00;;
17361;SDS011;8798;51.938;4.348;2022-10-15T01:03:20;17.30;;;9.93;;
17361;SDS011;8798;51.938;4.348;2022-10-15T01:05:58;18.67;;;9.50;;
17361;SDS011;8798;51.938;4.348;2022-10-15T01:08:29;17.67;;;10.50;;
17361;SDS011;8798;51.938;4.348;2022-10-15T01:11:04;16.93;;;10.63;;
17361;SDS011;8798;51.938;4.348;2022-10-15T01:13:49;20.53;;;10.33;;
17361;SDS011;8798;51.938;4.348;2022-10-15T01:16:31;18.13;;;10.23;;
17361;SDS011;8798;51.938;4.348;2022-10-15T01:19:16;19.63;;;10.63;;
17361;SDS011;8798;51.938;4.348;2022-10-15T01:22:08;17.27;;;10.33;;
17361;SDS011;8798;51.938;4.348;2022-10-15T01:24:53;19.10;;;10.27;;
17361;SDS011;8798;51.938;4.348;2022-10-15T01:27:39;15.63;;;9.73;;
17361;SDS011;8798;51.938;4.348;2022-10-15T01:30:19;17.97;;;9.83;;
17361;SDS011;8798;51.938;4.348;2022-10-15T01:36:00;18.17;;;10.50;;
17361;SDS011;8798;51.938;4.348;2022-10-15T01:38:48;22.03;;;10.57;;
17361;SDS011;8798;51.938;4.348;2022-10-15T01:41:26;17.87;;;9.73;;
17361;SDS011;8798;51.938;4.348;2022-10-15T01:44:06;18.20;;;10.07;;
17361;SDS011;8798;51.938;4.348;2022-10-15T01:46:46;17.13;;;9.67;;
17361;SDS011;8798;51.938;4.348;2022-10-15T01:49:29;16.83;;;9.77;;
17361;SDS011;8798;51.938;4.348;2022-10-15T01:52:11;16.17;;;9.83;;
17361;SDS011;8798;51.938;4.348;2022-10-15T01:54:49;17.90;;;10.60;;
17361;SDS011;8798;51.938;4.348;2022-10-15T01:57:28;18.40;;;10.27;;
17361;SDS011;8798;51.938;4.348;2022-10-15T02:00:08;17.17;;;9.80;;
17361;SDS011;8798;51.938;4.348;2022-10-15T02:02:39;17.53;;;9.77;;
17361;SDS011;8798;51.938;4.348;2022-10-15T02:05:09;17.57;;;10.33;;
17361;SDS011;8798;51.938;4.348;2022-10-15T02:07:49;19.97;;;10.30;;
17361;SDS011;8798;51.938;4.348;2022-10-15T02:10:40;18.00;;;10.03;;
17361;SDS011;8798;51.938;4.348;2022-10-15T02:13:18;17.20;;;10.47;;
17361;SDS011;8798;51.938;4.348;2022-10-15T02:16:00;20.90;;;10.23;;
17361;SDS011;8798;51.938;4.348;2022-10-15T02:18:40;19.17;;;9.50;;
17361;SDS011;8798;51.938;4.348;2022-10-15T02:21:18;17.70;;;10.27;;
17361;SDS011;8798;51.938;4.348;2022-10-15T02:23:51;15.40;;;9.17;;
17361;SDS011;8798;51.938;4.348;2022-10-15T02:26:26;18.00;;;10.00;;
17361;SDS011;8798;51.938;4.348;2022-10-15T02:28:58;16.27;;;9.40;;
17361;SDS011;8798;51.938;4.348;2022-10-15T02:31:28;18.37;;;9.47;;
17361;SDS011;8798;51.938;4.348;2022-10-15T02:34:09;17.77;;;9.30;;
17361;SDS011;8798;51.938;4.348;2022-10-15T02:36:46;16.67;;;9.63;;
17361;SDS011;8798;51.938;4.348;2022-10-15T02:39:16;18.23;;;10.07;;
17361;SDS011;8798;51.938;4.348;2022-10-15T02:41:55;18.13;;;9.53;;
17361;SDS011;8798;51.938;4.348;2022-10-15T02:44:30;18.13;;;10.17;;
17361;SDS011;8798;51.938;4.348;2022-10-15T02:47:00;16.70;;;9.83;;
17361;SDS011;8798;51.938;4.348;2022-10-15T02:49:38;18.37;;;9.40;;
17361;SDS011;8798;51.938;4.348;2022-10-15T02:52:08;17.33;;;10.10;;
17361;SDS011;8798;51.938;4.348;2022-10-15T02:54:37;18.20;;;9.40;;
17361;SDS011;8798;51.938;4.348;2022-10-15T02:57:06;15.13;;;9.43;;
17361;SDS011;8798;51.938;4.348;2022-10-15T02:59:38;16.80;;;10.03;;
17361;SDS011;8798;51.938;4.348;2022-10-15T03:02:08;19.07;;;10.50;;
17361;SDS011;8798;51.938;4.348;2022-10-15T03:04:44;16.67;;;9.57;;
17361;SDS011;8798;51.938;4.348;2022-10-15T03:07:16;17.90;;;10.03;;
17361;SDS011;8798;51.938;4.348;2022-10-15T03:09:48;15.33;;;9.07;;
17361;SDS011;8798;51.938;4.348;2022-10-15T03:12:18;18.40;;;9.43;;
17361;SDS011;8798;51.938;4.348;2022-10-15T03:14:51;15.20;;;9.33;;
17361;SDS011;8798;51.938;4.348;2022-10-15T03:17:22;18.80;;;10.63;;
17361;SDS011;8798;51.938;4.348;2022-10-15T03:19:56;14.77;;;9.37;;
17361;SDS011;8798;51.938;4.348;2022-10-15T03:22:28;16.87;;;9.77;;
17361;SDS011;8798;51.938;4.348;2022-10-15T03:24:59;19.13;;;9.87;;
17361;SDS011;8798;51.938;4.348;2022-10-15T03:27:28;16.50;;;9.83;;
17361;SDS011;8798;51.938;4.348;2022-10-15T03:29:56;17.40;;;9.83;;
17361;SDS011;8798;51.938;4.348;2022-10-15T03:32:27;15.47;;;9.17;;
17361;SDS011;8798;51.938;4.348;2022-10-15T03:35:02;17.50;;;10.03;;
17361;SDS011;8798;51.938;4.348;2022-10-15T03:37:34;18.43;;;10.20;;
17361;SDS011;8798;51.938;4.348;2022-10-15T03:40:05;14.87;;;8.97;;
17361;SDS011;8798;51.938;4.348;2022-10-15T03:42:41;15.87;;;10.17;;
17361;SDS011;8798;51.938;4.348;2022-10-15T03:45:13;15.37;;;9.47;;
17361;SDS011;8798;51.938;4.348;2022-10-15T03:47:45;17.33;;;9.33;;
17361;SDS011;8798;51.938;4.348;2022-10-15T03:50:20;18.20;;;10.03;;
17361;SDS011;8798;51.938;4.348;2022-10-15T03:52:48;17.73;;;10.13;;
17361;SDS011;8798;51.938;4.348;2022-10-15T03:55:16;15.73;;;10.47;;
17361;SDS011;8798;51.938;4.348;2022-10-15T03:57:46;15.20;;;9.27;;
17361;SDS011;8798;51.938;4.348;2022-10-15T04:00:16;16.43;;;10.10;;
17361;SDS011;8798;51.938;4.348;2022-10-15T04:02:44;15.53;;;9.70;;
17361;SDS011;8798;51.938;4.348;2022-10-15T04:05:20;13.47;;;8.80;;
17361;SDS011;8798;51.938;4.348;2022-10-15T04:07:48;15.83;;;9.67;;
17361;SDS011;8798;51.938;4.348;2022-10-15T04:10:16;18.27;;;10.00;;
17361;SDS011;8798;51.938;4.348;2022-10-15T04:12:50;17.17;;;9.43;;
17361;SDS011;8798;51.938;4.348;2022-10-15T04:15:18;16.33;;;9.03;;
17361;SDS011;8798;51.938;4.348;2022-10-15T04:17:48;15.30;;;9.63;;
17361;SDS011;8798;51.938;4.348;2022-10-15T04:20:24;15.90;;;8.83;;
17361;SDS011;8798;51.938;4.348;2022-10-15T04:22:56;14.23;;;8.67;;
17361;SDS011;8798;51.938;4.348;2022-10-15T04:25:26;15.40;;;8.83;;
17361;SDS011;8798;51.938;4.348;2022-10-15T04:27:57;16.03;;;9.20;;
17361;SDS011;8798;51.938;4.348;2022-10-15T04:30:24;17.63;;;9.57;;
17361;SDS011;8798;51.938;4.348;2022-10-15T04:32:54;16.33;;;8.80;;
17361;SDS011;8798;51.938;4.348;2022-10-15T04:35:30;16.40;;;10.17;;
17361;SDS011;8798;51.938;4.348;2022-10-15T04:38:10;17.20;;;9.63;;
17361;SDS011;8798;51.938;4.348;2022-10-15T04:40:38;16.57;;;10.37;;
17361;SDS011;8798;51.938;4.348;2022-10-15T04:43:09;13.60;;;8.57;;
17361;SDS011;8798;51.938;4.348;2022-10-15T04:45:37;15.90;;;9.50;;
17361;SDS011;8798;51.938;4.348;2022-10-15T04:48:18;18.30;;;10.10;;
17361;SDS011;8798;51.938;4.348;2022-10-15T04:50:48;15.30;;;9.90;;
17361;SDS011;8798;51.938;4.348;2022-10-15T04:53:16;18.23;;;9.93;;
17361;SDS011;8798;51.938;4.348;2022-10-15T04:55:48;16.77;;;9.80;;
17361;SDS011;8798;51.938;4.348;2022-10-15T04:58:16;15.27;;;9.50;;
17361;SDS011;8798;51.938;4.348;2022-10-15T05:00:46;15.53;;;9.40;;
17361;SDS011;8798;51.938;4.348;2022-10-15T05:03:17;16.60;;;9.43;;
17361;SDS011;8798;51.938;4.348;2022-10-15T05:05:50;18.43;;;9.63;;
17361;SDS011;8798;51.938;4.348;2022-10-15T05:08:18;15.57;;;9.10;;
17361;SDS011;8798;51.938;4.348;2022-10-15T05:10:48;17.10;;;9.70;;
17361;SDS011;8798;51.938;4.348;2022-10-15T05:13:16;19.57;;;10.63;;
17361;SDS011;8798;51.938;4.348;2022-10-15T05:15:50;18.43;;;9.73;;
17361;SDS011;8798;51.938;4.348;2022-10-15T05:18:20;18.30;;;9.40;;
17361;SDS011;8798;51.938;4.348;2022-10-15T05:21:01;16.93;;;8.73;;
17361;SDS011;8798;51.938;4.348;2022-10-15T05:23:30;15.67;;;8.33;;
17361;SDS011;8798;51.938;4.348;2022-10-15T05:26:03;12.67;;;8.07;;
17361;SDS011;8798;51.938;4.348;2022-10-15T05:28:38;14.23;;;8.37;;
17361;SDS011;8798;51.938;4.348;2022-10-15T05:31:07;13.63;;;7.87;;
17361;SDS011;8798;51.938;4.348;2022-10-15T05:33:50;13.33;;;8.03;;
17361;SDS011;8798;51.938;4.348;2022-10-15T05:36:25;13.47;;;7.87;;
17361;SDS011;8798;51.938;4.348;2022-10-15T05:38:57;13.47;;;7.90;;
17361;SDS011;8798;51.938;4.348;2022-10-15T05:41:26;13.73;;;7.60;;
17361;SDS011;8798;51.938;4.348;2022-10-15T05:43:55;12.40;;;8.00;;
17361;SDS011;8798;51.938;4.348;2022-10-15T05:46:25;13.80;;;8.10;;
17361;SDS011;8798;51.938;4.348;2022-10-15T05:48:55;13.23;;;8.10;;
17361;SDS011;8798;51.938;4.348;2022-10-15T05:51:27;15.23;;;7.67;;
17361;SDS011;8798;51.938;4.348;2022-10-15T05:53:56;17.73;;;7.93;;
17361;SDS011;8798;51.938;4.348;2022-10-15T05:56:29;16.07;;;7.87;;
17361;SDS011;8798;51.938;4.348;2022-10-15T05:58:58;15.07;;;7.07;;
17361;SDS011;8798;51.938;4.348;2022-10-15T06:01:30;12.67;;;7.17;;
17361;SDS011;8798;51.938;4.348;2022-10-15T06:03:58;12.10;;;7.57;;
17361;SDS011;8798;51.938;4.348;2022-10-15T06:06:28;13.70;;;7.13;;
17361;SDS011;8798;51.938;4.348;2022-10-15T06:08:59;14.20;;;7.37;;
17361;SDS011;8798;51.938;4.348;2022-10-15T06:11:29;12.83;;;7.13;;
17361;SDS011;8798;51.938;4.348;2022-10-15T06:13:58;14.10;;;7.60;;
17361;SDS011;8798;51.938;4.348;2022-10-15T06:16:29;13.83;;;8.47;;
17361;SDS011;8798;51.938;4.348;2022-10-15T06:18:58;16.20;;;8.53;;
17361;SDS011;8798;51.938;4.348;2022-10-15T06:21:26;17.33;;;8.57;;
17361;SDS011;8798;51.938;4.348;2022-10-15T06:23:57;19.50;;;9.93;;
17361;SDS011;8798;51.938;4.348;2022-10-15T06:26:37;18.83;;;9.67;;
17361;SDS011;8798;51.938;4.348;2022-10-15T06:29:08;19.13;;;10.07;;
17361;SDS011;8798;51.938;4.348;2022-10-15T06:31:38;18.97;;;10.07;;
17361;SDS011;8798;51.938;4.348;2022-10-15T06:34:06;23.20;;;11.17;;
17361;SDS011;8798;51.938;4.348;2022-10-15T06:36:35;21.53;;;10.90;;
17361;SDS011;8798;51.938;4.348;2022-10-15T06:39:03;23.47;;;11.70;;
17361;SDS011;8798;51.938;4.348;2022-10-15T06:41:31;24.00;;;11.23;;
17361;SDS011;8798;51.938;4.348;2022-10-15T06:43:59;26.30;;;12.83;;
17361;SDS011;8798;51.938;4.348;2022-10-15T06:46:27;25.70;;;12.23;;
17361;SDS011;8798;51.938;4.348;2022-10-15T06:48:54;24.93;;;12.20;;
17361;SDS011;8798;51.938;4.348;2022-10-15T06:51:22;25.70;;;11.97;;
17361;SDS011;8798;51.938;4.348;2022-10-15T06:54:00;26.87;;;12.50;;
17361;SDS011;8798;51.938;4.348;2022-10-15T06:56:29;24.83;;;12.23;;
17361;SDS011;8798;51.938;4.348;2022-10-15T06:58:59;24.77;;;12.47;;
17361;SDS011;8798;51.938;4.348;2022-10-15T07:01:27;25.33;;;12.63;;
17361;SDS011;8798;51.938;4.348;2022-10-15T07:03:58;25.30;;;12.00;;
17361;SDS011;8798;51.938;4.348;2022-10-15T07:06:27;24.17;;;12.40;;
17361;SDS011;8798;51.938;4.348;2022-10-15T07:09:01;21.57;;;11.40;;
17361;SDS011;8798;51.938;4.348;2022-10-15T07:11:35;23.03;;;11.70;;
17361;SDS011;8798;51.938;4.348;2022-10-15T07:14:07;19.57;;;9.93;;
17361;SDS011;8798;51.938;4.348;2022-10-15T07:16:37;17.53;;;8.93;;
17361;SDS011;8798;51.938;4.348;2022-10-15T07:19:08;17.67;;;8.57;;
17361;SDS011;8798;51.938;4.348;2022-10-15T07:21:37;17.53;;;8.73;;
17361;SDS011;8798;51.938;4.348;2022-10-15T07:24:06;19.30;;;8.90;;
17361;SDS011;8798;51.938;4.348;2022-10-15T07:26:34;14.37;;;8.03;;
17361;SDS011;8798;51.938;4.348;2022-10-15T07:29:02;17.73;;;8.77;;
17361;SDS011;8798;51.938;4.348;2022-10-15T07:31:30;15.57;;;8.47;;
17361;SDS011;8798;51.938;4.348;2022-10-15T07:33:58;15.17;;;8.30;;
17361;SDS011;8798;51.938;4.348;2022-10-15T07:36:26;16.60;;;8.17;;
17361;SDS011;8798;51.938;4.348;2022-10-15T07:38:54;16.07;;;7.73;;
17361;SDS011;8798;51.938;4.348;2022-10-15T07:41:23;14.00;;;7.83;;
17361;SDS011;8798;51.938;4.348;2022-10-15T07:43:51;15.63;;;7.97;;
17361;SDS011;8798;51.938;4.348;2022-10-15T07:46:18;18.13;;;8.67;;
17361;SDS011;8798;51.938;4.348;2022-10-15T07:48:46;17.17;;;8.80;;
17361;SDS011;8798;51.938;4.348;2022-10-15T07:51:14;17.33;;;8.80;;
17361;SDS011;8798;51.938;4.348;2022-10-15T07:53:42;18.43;;;8.73;;
17361;SDS011;8798;51.938;4.348;2022-10-15T07:56:13;17.10;;;8.80;;
17361;SDS011;8798;51.938;4.348;2022-10-15T07:58:43;19.10;;;9.30;;
17361;SDS011;8798;51.938;4.348;2022-10-15T08:01:17;20.47;;;10.30;;
17361;SDS011;8798;51.938;4.348;2022-10-15T08:03:46;20.20;;;10.47;;
17361;SDS011;8798;51.938;4.348;2022-10-15T08:06:14;22.53;;;11.40;;
17361;SDS011;8798;51.938;4.348;2022-10-15T08:08:42;21.67;;;11.43;;
17361;SDS011;8798;51.938;4.348;2022-10-15T08:11:10;20.87;;;10.50;;
17361;SDS011;8798;51.938;4.348;2022-10-15T08:13:40;20.67;;;11.43;;
17361;SDS011;8798;51.938;4.348;2022-10-15T08:16:10;22.23;;;11.00;;
17361;SDS011;8798;51.938;4.348;2022-10-15T08:18:42;22.30;;;11.70;;
17361;SDS011;8798;51.938;4.348;2022-10-15T08:21:15;22.63;;;11.27;;
17361;SDS011;8798;51.938;4.348;2022-10-15T08:23:47;22.10;;;11.17;;
17361;SDS011;8798;51.938;4.348;2022-10-15T08:26:15;21.43;;;11.07;;
17361;SDS011;8798;51.938;4.348;2022-10-15T08:28:50;23.17;;;11.77;;
17361;SDS011;8798;51.938;4.348;2022-10-15T08:31:19;19.67;;;10.73;;
17361;SDS011;8798;51.938;4.348;2022-10-15T08:33:48;24.63;;;10.80;;
17361;SDS011;8798;51.938;4.348;2022-10-15T08:36:19;24.37;;;11.43;;
17361;SDS011;8798;51.938;4.348;2022-10-15T08:38:48;22.53;;;11.33;;
17361;SDS011;8798;51.938;4.348;2022-10-15T08:41:22;20.40;;;10.77;;
17361;SDS011;8798;51.938;4.348;2022-10-15T08:43:58;18.63;;;9.77;;
17361;SDS011;8798;51.938;4.348;2022-10-15T08:46:30;20.53;;;9.30;;
17361;SDS011;8798;51.938;4.348;2022-10-15T08:49:05;17.00;;;9.07;;
17361;SDS011;8798;51.938;4.348;2022-10-15T08:51:47;16.80;;;8.90;;
17361;SDS011;8798;51.938;4.348;2022-10-15T08:54:18;16.37;;;8.37;;
17361;SDS011;8798;51.938;4.348;2022-10-15T08:56:50;15.50;;;8.73;;
17361;SDS011;8798;51.938;4.348;2022-10-15T08:59:29;16.50;;;8.57;;
17361;SDS011;8798;51.938;4.348;2022-10-15T09:02:04;14.93;;;8.37;;
17361;SDS011;8798;51.938;4.348;2022-10-15T09:04:40;17.03;;;9.23;;
17361;SDS011;8798;51.938;4.348;2022-10-15T09:07:22;15.60;;;9.13;;
17361;SDS011;8798;51.938;4.348;2022-10-15T09:10:00;16.67;;;9.10;;
17361;SDS011;8798;51.938;4.348;2022-10-15T09:12:35;15.40;;;8.47;;
17361;SDS011;8798;51.938;4.348;2022-10-15T09:15:13;15.23;;;8.87;;
17361;SDS011;8798;51.938;4.348;2022-10-15T09:17:45;13.93;;;8.23;;
17361;SDS011;8798;51.938;4.348;2022-10-15T09:20:16;14.67;;;9.00;;
17361;SDS011;8798;51.938;4.348;2022-10-15T09:22:46;16.97;;;8.93;;
17361;SDS011;8798;51.938;4.348;2022-10-15T09:25:17;14.83;;;8.70;;
17361;SDS011;8798;51.938;4.348;2022-10-15T09:27:47;12.93;;;8.10;;
17361;SDS011;8798;51.938;4.348;2022-10-15T09:30:21;12.63;;;7.50;;
17361;SDS011;8798;51.938;4.348;2022-10-15T09:33:04;13.23;;;7.83;;
17361;SDS011;8798;51.938;4.348;2022-10-15T09:35:36;8.73;;;5.47;;
17361;SDS011;8798;51.938;4.348;2022-10-15T09:38:20;8.40;;;5.37;;
17361;SDS011;8798;51.938;4.348;2022-10-15T09:40:58;9.63;;;5.40;;
17361;SDS011;8798;51.938;4.348;2022-10-15T09:43:40;7.63;;;4.87;;
17361;SDS011;8798;51.938;4.348;2022-10-15T09:46:11;7.53;;;4.67;;
17361;SDS011;8798;51.938;4.348;2022-10-15T09:48:42;8.07;;;4.77;;
17361;SDS011;8798;51.938;4.348;2022-10-15T09:51:21;7.83;;;4.87;;
17361;SDS011;8798;51.938;4.348;2022-10-15T09:53:56;6.70;;;4.33;;
17361;SDS011;8798;51.938;4.348;2022-10-15T09:56:31;7.20;;;4.57;;
17361;SDS011;8798;51.938;4.348;2022-10-15T09:59:02;8.30;;;4.87;;
17361;SDS011;8798;51.938;4.348;2022-10-15T10:01:34;9.40;;;5.30;;
17361;SDS011;8798;51.938;4.348;2022-10-15T10:04:11;9.40;;;5.33;;
17361;SDS011;8798;51.938;4.348;2022-10-15T10:06:43;8.70;;;5.60;;
17361;SDS011;8798;51.938;4.348;2022-10-15T10:09:14;8.20;;;5.17;;
17361;SDS011;8798;51.938;4.348;2022-10-15T10:11:46;7.23;;;4.50;;
17361;SDS011;8798;51.938;4.348;2022-10-15T10:14:21;5.90;;;3.17;;
17361;SDS011;8798;51.938;4.348;2022-10-15T10:17:12;5.33;;;3.33;;
17361;SDS011;8798;51.938;4.348;2022-10-15T10:19:44;6.43;;;3.63;;
17361;SDS011;8798;51.938;4.348;2022-10-15T10:22:28;6.27;;;4.00;;
17361;SDS011;8798;51.938;4.348;2022-10-15T10:24:55;5.90;;;3.90;;
17361;SDS011;8798;51.938;4.348;2022-10-15T10:27:24;6.50;;;3.80;;
17361;SDS011;8798;51.938;4.348;2022-10-15T10:29:55;6.33;;;3.87;;
17361;SDS011;8798;51.938;4.348;2022-10-15T10:32:27;5.33;;;3.27;;
17361;SDS011;8798;51.938;4.348;2022-10-15T10:34:58;4.23;;;2.93;;
17361;SDS011;8798;51.938;4.348;2022-10-15T10:37:28;5.00;;;3.13;;
17361;SDS011;8798;51.938;4.348;2022-10-15T10:40:18;3.77;;;2.77;;
17361;SDS011;8798;51.938;4.348;2022-10-15T10:43:08;4.30;;;2.57;;
17361;SDS011;8798;51.938;4.348;2022-10-15T10:45:38;3.97;;;2.80;;
17361;SDS011;8798;51.938;4.348;2022-10-15T10:51:04;4.87;;;3.07;;
17361;SDS011;8798;51.938;4.348;2022-10-15T10:53:38;3.90;;;2.53;;
17361;SDS011;8798;51.938;4.348;2022-10-15T10:56:12;5.67;;;3.60;;
17361;SDS011;8798;51.938;4.348;2022-10-15T10:58:41;5.43;;;3.60;;
17361;SDS011;8798;51.938;4.348;2022-10-15T11:01:09;4.10;;;3.20;;
17361;SDS011;8798;51.938;4.348;2022-10-15T11:03:40;3.97;;;3.03;;
17361;SDS011;8798;51.938;4.348;2022-10-15T11:09:12;4.20;;;2.73;;
17361;SDS011;8798;51.938;4.348;2022-10-15T11:11:50;5.37;;;3.57;;
17361;SDS011;8798;51.938;4.348;2022-10-15T11:14:29;6.20;;;3.50;;
17361;SDS011;8798;51.938;4.348;2022-10-15T11:17:06;6.57;;;3.60;;
17361;SDS011;8798;51.938;4.348;2022-10-15T11:19:43;5.03;;;3.70;;
17361;SDS011;8798;51.938;4.348;2022-10-15T11:22:40;4.57;;;3.00;;
17361;SDS011;8798;51.938;4.348;2022-10-15T11:25:22;4.63;;;3.20;;
17361;SDS011;8798;51.938;4.348;2022-10-15T11:28:04;4.43;;;3.30;;
17361;SDS011;8798;51.938;4.348;2022-10-15T11:30:42;4.83;;;3.33;;
17361;SDS011;8798;51.938;4.348;2022-10-15T11:33:28;5.00;;;3.50;;
17361;SDS011;8798;51.938;4.348;2022-10-15T11:36:08;5.90;;;3.87;;
17361;SDS011;8798;51.938;4.348;2022-10-15T11:38:49;6.50;;;3.80;;
17361;SDS011;8798;51.938;4.348;2022-10-15T11:41:31;6.30;;;3.93;;
17361;SDS011;8798;51.938;4.348;2022-10-15T11:44:10;4.80;;;3.40;;
17361;SDS011;8798;51.938;4.348;2022-10-15T11:46:52;5.13;;;3.33;;
17361;SDS011;8798;51.938;4.348;2022-10-15T11:49:32;4.50;;;3.27;;
17361;SDS011;8798;51.938;4.348;2022-10-15T11:52:12;5.73;;;2.90;;
17361;SDS011;8798;51.938;4.348;2022-10-15T11:54:54;3.83;;;2.67;;
17361;SDS011;8798;51.938;4.348;2022-10-15T11:57:30;4.37;;;2.90;;
17361;SDS011;8798;51.938;4.348;2022-10-15T12:00:02;3.50;;;2.33;;
17361;SDS011;8798;51.938;4.348;2022-10-15T12:02:36;4.33;;;2.50;;
17361;SDS011;8798;51.938;4.348;2022-10-15T12:05:05;3.77;;;2.50;;
17361;SDS011;8798;51.938;4.348;2022-10-15T12:07:36;4.40;;;2.67;;
17361;SDS011;8798;51.938;4.348;2022-10-15T12:10:12;4.90;;;2.97;;
17361;SDS011;8798;51.938;4.348;2022-10-15T12:12:57;4.27;;;2.63;;
17361;SDS011;8798;51.938;4.348;2022-10-15T12:15:34;3.90;;;2.67;;
17361;SDS011;8798;51.938;4.348;2022-10-15T12:18:12;3.77;;;2.47;;
17361;SDS011;8798;51.938;4.348;2022-10-15T12:20:46;3.87;;;2.40;;
17361;SDS011;8798;51.938;4.348;2022-10-15T12:23:24;3.83;;;2.70;;
17361;SDS011;8798;51.938;4.348;2022-10-15T12:26:12;4.20;;;2.40;;
17361;SDS011;8798;51.938;4.348;2022-10-15T12:28:56;3.10;;;2.30;;
17361;SDS011;8798;51.938;4.348;2022-10-15T12:31:47;3.30;;;2.27;;
17361;SDS011;8798;51.938;4.348;2022-10-15T12:34:24;2.87;;;2.10;;
17361;SDS011;8798;51.938;4.348;2022-10-15T12:37:01;3.27;;;2.20;;
17361;SDS011;8798;51.938;4.348;2022-10-15T12:39:34;2.80;;;1.80;;
17361;SDS011;8798;51.938;4.348;2022-10-15T12:42:21;3.20;;;2.10;;
17361;SDS011;8798;51.938;4.348;2022-10-15T12:44:53;3.83;;;2.47;;
17361;SDS011;8798;51.938;4.348;2022-10-15T12:50:15;3.80;;;2.20;;
17361;SDS011;8798;51.938;4.348;2022-10-15T12:52:55;3.03;;;2.27;;
17361;SDS011;8798;51.938;4.348;2022-10-15T12:55:28;4.70;;;1.77;;
17361;SDS011;8798;51.938;4.348;2022-10-15T12:58:02;2.47;;;1.67;;
17361;SDS011;8798;51.938;4.348;2022-10-15T13:00:34;2.20;;;1.40;;
17361;SDS011;8798;51.938;4.348;2022-10-15T13:03:29;1.00;;;0.90;;
17361;SDS011;8798;51.938;4.348;2022-10-15T13:06:14;3.90;;;0.90;;
17361;SDS011;8798;51.938;4.348;2022-10-15T13:08:52;1.90;;;0.60;;
17361;SDS011;8798;51.938;4.348;2022-10-15T13:11:24;0.70;;;0.53;;
17361;SDS011;8798;51.938;4.348;2022-10-15T13:13:56;0.53;;;0.27;;
17361;SDS011;8798;51.938;4.348;2022-10-15T13:16:27;0.97;;;0.30;;
17361;SDS011;8798;51.938;4.348;2022-10-15T13:18:56;1.77;;;0.40;;
17361;SDS011;8798;51.938;4.348;2022-10-15T13:24:16;2.33;;;0.53;;
17361;SDS011;8798;51.938;4.348;2022-10-15T13:26:46;0.40;;;0.37;;
17361;SDS011;8798;51.938;4.348;2022-10-15T13:29:16;1.73;;;0.60;;
17361;SDS011;8798;51.938;4.348;2022-10-15T13:31:46;1.03;;;0.40;;
17361;SDS011;8798;51.938;4.348;2022-10-15T13:34:16;1.90;;;0.50;;
17361;SDS011;8798;51.938;4.348;2022-10-15T13:36:59;0.73;;;0.50;;
17361;SDS011;8798;51.938;4.348;2022-10-15T13:39:29;3.17;;;0.50;;
17361;SDS011;8798;51.938;4.348;2022-10-15T13:42:08;5.47;;;0.67;;
17361;SDS011;8798;51.938;4.348;2022-10-15T13:44:40;1.80;;;0.47;;
17361;SDS011;8798;51.938;4.348;2022-10-15T13:47:23;1.30;;;0.50;;
17361;SDS011;8798;51.938;4.348;2022-10-15T13:52:39;0.73;;;0.40;;
17361;SDS011;8798;51.938;4.348;2022-10-15T13:55:15;1.70;;;0.40;;
17361;SDS011;8798;51.938;4.348;2022-10-15T13:57:45;1.60;;;0.50;;
17361;SDS011;8798;51.938;4.348;2022-10-15T14:00:21;1.73;;;0.60;;
17361;SDS011;8798;51.938;4.348;2022-10-15T14:05:48;3.57;;;0.40;;
17361;SDS011;8798;51.938;4.348;2022-10-15T14:08:21;3.20;;;0.63;;
17361;SDS011;8798;51.938;4.348;2022-10-15T14:10:51;3.73;;;0.63;;
17361;SDS011;8798;51.938;4.348;2022-10-15T14:13:20;2.77;;;0.70;;
17361;SDS011;8798;51.938;4.348;2022-10-15T14:15:54;0.47;;;0.30;;
17361;SDS011;8798;51.938;4.348;2022-10-15T14:18:28;3.27;;;0.60;;
17361;SDS011;8798;51.938;4.348;2022-10-15T14:21:01;2.83;;;0.50;;
17361;SDS011;8798;51.938;4.348;2022-10-15T14:23:30;2.53;;;0.50;;
17361;SDS011;8798;51.938;4.348;2022-10-15T14:25:58;0.60;;;0.37;;
17361;SDS011;8798;51.938;4.348;2022-10-15T14:28:29;2.20;;;0.50;;
17361;SDS011;8798;51.938;4.348;2022-10-15T14:30:59;0.70;;;0.60;;
17361;SDS011;8798;51.938;4.348;2022-10-15T14:33:30;1.63;;;0.60;;
17361;SDS011;8798;51.938;4.348;2022-10-15T14:36:22;1.70;;;0.50;;
17361;SDS011;8798;51.938;4.348;2022-10-15T14:38:52;3.40;;;0.53;;
17361;SDS011;8798;51.938;4.348;2022-10-15T14:41:26;2.37;;;0.60;;
17361;SDS011;8798;51.938;4.348;2022-10-15T14:43:59;0.97;;;0.40;;
17361;SDS011;8798;51.938;4.348;2022-10-15T14:46:34;3.33;;;0.50;;
17361;SDS011;8798;51.938;4.348;2022-10-15T14:49:17;1.27;;;0.43;;
17361;SDS011;8798;51.938;4.348;2022-10-15T14:51:52;1.93;;;0.50;;
17361;SDS011;8798;51.938;4.348;2022-10-15T14:54:23;1.40;;;0.50;;
17361;SDS011;8798;51.938;4.348;2022-10-15T14:56:56;1.80;;;0.40;;
17361;SDS011;8798;51.938;4.348;2022-10-15T14:59:27;0.60;;;0.60;;
17361;SDS011;8798;51.938;4.348;2022-10-15T15:01:58;1.70;;;0.50;;
17361;SDS011;8798;51.938;4.348;2022-10-15T15:04:34;1.77;;;0.47;;
17361;SDS011;8798;51.938;4.348;2022-10-15T15:07:13;1.80;;;0.40;;
17361;SDS011;8798;51.938;4.348;2022-10-15T15:09:46;1.67;;;0.60;;
17361;SDS011;8798;51.938;4.348;2022-10-15T15:12:19;3.30;;;0.80;;
17361;SDS011;8798;51.938;4.348;2022-10-15T15:14:53;2.70;;;0.57;;
17361;SDS011;8798;51.938;4.348;2022-10-15T15:17:22;3.17;;;0.70;;
17361;SDS011;8798;51.938;4.348;2022-10-15T15:19:53;1.20;;;0.50;;
17361;SDS011;8798;51.938;4.348;2022-10-15T15:22:23;3.27;;;0.60;;
17361;SDS011;8798;51.938;4.348;2022-10-15T15:24:55;1.30;;;0.53;;
17361;SDS011;8798;51.938;4.348;2022-10-15T15:27:25;3.80;;;0.57;;
17361;SDS011;8798;51.938;4.348;2022-10-15T15:29:56;5.70;;;0.70;;
17361;SDS011;8798;51.938;4.348;2022-10-15T15:32:24;1.17;;;0.53;;
17361;SDS011;8798;51.938;4.348;2022-10-15T15:34:53;1.93;;;0.47;;
17361;SDS011;8798;51.938;4.348;2022-10-15T15:37:24;1.23;;;0.70;;
17361;SDS011;8798;51.938;4.348;2022-10-15T15:39:52;1.17;;;0.50;;
17361;SDS011;8798;51.938;4.348;2022-10-15T15:42:22;4.40;;;0.90;;
17361;SDS011;8798;51.938;4.348;2022-10-15T15:44:51;2.63;;;0.50;;
17361;SDS011;8798;51.938;4.348;2022-10-15T15:47:19;3.60;;;0.57;;
17361;SDS011;8798;51.938;4.348;2022-10-15T15:49:46;4.77;;;0.70;;